Terminal Aerodrome Forecast
Issued by NWS

Current Version | Previous Version | Text Only | Print | Product List | Glossary Off
Versions: 1 2 3 4 5 6 7 8 9 10 11 12 13 14 15 16 17 18 19 20 21 22 23 24 25 26 27 28 29 30 31 32 33 34 35 36 37 38 39 40 41

000
FTUS41 KRNK 201140
TAFLWB
TAF
KLWB 201140Z 2012/2112 00000KT 4SM BR OVC005
     FM201300 VRB03KT 6SM -SHRA BKN013 OVC050
     FM201500 VRB03KT 4SM SHRA OVC018
     FM201700 26005KT P6SM VCTS SCT020 BKN050CB
     FM202200 VRB03KT P6SM SCT060 BKN200
     FM210300 00000KT 4SM BR SCT007
     FM210900 00000KT 1/4SM FG VV002=

USA.gov is the U.S. government's official web portal to all federal, state and local government web resources and services.